Terminal Aerodrome Forecast
Issued by NWS

Home | Current Version | Previous Version | Text Only | Print | Product List | Glossary On
Versions: 1 2 3 4 5 6 7 8 9 10 11 12 13 14 15 16 17 18 19 20 21 22 23 24 25
000
FTUS43 KDTX 281721
TAFPTK
TAF
KPTK 281721Z 2818/0118 20008KT P6SM BKN250
     FM010000 20004KT P6SM BKN200
     FM010600 14003KT 5SM -SN BKN040 OVC080
     FM011100 11003KT 2SM -SN BKN022 OVC040
     FM011400 20003KT P6SM -SN BKN030 OVC060=

USA.gov is the U.S. government's official web portal to all federal, state and local government web resources and services.